Time,TemperatureF,DewpointF,PressureIn,WindDirection,WindDirectionDegrees,WindSpeedMPH,WindSpeedGustMPH,Humidity,HourlyPrecipIn,Conditions,Clouds,dailyrainin,SoftwareType,DateUTC
2013-01-26 00:00:00,16.2,9.6,29.88,SW,225,0.0,0.0,75,0.00,,---,0.00,VWS V14.01,2013-01-26 05:00:00,
2013-01-26 00:02:00,16.2,9.6,29.88,SW,225,0.0,0.0,75,0.00,,---,0.00,VWS V14.01,2013-01-26 05:02:00,
2013-01-26 00:07:00,16.2,9.6,29.88,SW,225,0.0,0.0,75,0.00,,---,0.00,VWS V14.01,2013-01-26 05:07:00,
2013-01-26 00:12:00,16.2,9.6,29.88,SW,225,0.0,0.0,75,0.00,,---,0.00,VWS V14.01,2013-01-26 05:12:00,
2013-01-26 00:17:00,16.2,9.6,29.85,SW,225,0.0,0.0,75,0.00,,---,0.00,VWS V14.01,2013-01-26 05:17:00,
2013-01-26 00:22:00,16.2,9.6,29.85,SW,225,0.0,0.0,75,0.00,,---,0.00,VWS V14.01,2013-01-26 05:22:00,
2013-01-26 00:27:00,16.2,9.6,29.85,SW,225,0.0,0.0,75,0.00,,---,0.00,VWS V14.01,2013-01-26 05:27:00,
2013-01-26 00:32:00,16.2,9.6,29.88,SW,225,0.0,0.0,75,0.00,,---,0.00,VWS V14.01,2013-01-26 05:32:00,
2013-01-26 00:37:00,16.2,9.6,29.88,SW,225,0.0,0.0,75,0.00,,---,0.00,VWS V14.01,2013-01-26 05:37:00,
2013-01-26 00:42:00,16.2,9.6,29.88,SW,225,0.0,0.0,75,0.00,,---,0.00,VWS V14.01,2013-01-26 05:42:00,
2013-01-26 00:47:00,16.2,9.6,29.85,SW,225,0.0,0.0,75,0.00,,---,0.00,VWS V14.01,2013-01-26 05:47:00,
2013-01-26 00:52:00,16.2,9.6,29.85,SW,225,0.0,0.0,75,0.00,,---,0.00,VWS V14.01,2013-01-26 05:52:00,
2013-01-26 00:57:00,16.3,9.8,29.85,SW,225,0.0,0.0,75,0.00,,---,0.00,VWS V14.01,2013-01-26 05:57:00,
2013-01-26 01:02:00,16.3,10.1,29.85,SW,225,0.0,0.0,76,0.00,,---,0.00,VWS V14.01,2013-01-26 06:02:00,
2013-01-26 01:07:00,16.3,10.1,29.85,SW,225,0.0,0.0,76,0.00,,---,0.00,VWS V14.01,2013-01-26 06:07:00,
2013-01-26 01:12:00,16.3,10.1,29.85,SW,225,0.0,0.0,76,0.00,,---,0.00,VWS V14.01,2013-01-26 06:12:00,
2013-01-26 01:17:00,16.5,10.3,29.88,SW,225,0.0,0.0,76,0.00,,---,0.00,VWS V14.01,2013-01-26 06:17:00,
2013-01-26 01:22:00,16.5,10.3,29.88,SW,225,0.0,0.0,76,0.00,,---,0.00,VWS V14.01,2013-01-26 06:22:00,
2013-01-26 01:27:00,16.5,10.3,29.88,SW,225,0.0,0.0,76,0.00,,---,0.00,VWS V14.01,2013-01-26 06:27:00,
2013-01-26 01:32:00,16.5,10.3,29.85,SW,225,0.0,0.0,76,0.00,,---,0.00,VWS V14.01,2013-01-26 06:32:00,
2013-01-26 01:37:00,16.5,10.3,29.85,SW,225,0.0,0.0,76,0.00,,---,0.00,VWS V14.01,2013-01-26 06:37:00,
2013-01-26 01:42:00,16.5,10.3,29.85,SW,225,0.0,0.0,76,0.00,,---,0.00,VWS V14.01,2013-01-26 06:42:00,
2013-01-26 01:47:00,16.7,10.5,29.88,SW,225,0.0,0.0,76,0.00,,---,0.00,VWS V14.01,2013-01-26 06:47:00,
2013-01-26 01:52:00,16.7,10.5,29.88,SW,225,0.0,0.0,76,0.00,,---,0.00,VWS V14.01,2013-01-26 06:52:00,
2013-01-26 01:57:00,16.7,10.5,29.88,SW,225,0.0,0.0,76,0.00,,---,0.00,VWS V14.01,2013-01-26 06:57:00,
2013-01-26 02:02:00,16.7,10.5,29.88,SW,225,0.0,0.0,76,0.00,,---,0.00,VWS V14.01,2013-01-26 07:02:00,
2013-01-26 02:07:00,16.7,10.5,29.88,SW,225,0.0,0.0,76,0.00,,---,0.00,VWS V14.01,2013-01-26 07:07:00,
2013-01-26 02:12:00,16.7,10.5,29.88,SW,225,0.0,0.0,76,0.00,,---,0.00,VWS V14.01,2013-01-26 07:12:00,
2013-01-26 02:16:00,16.5,10.3,29.88,SW,225,0.0,0.0,76,0.00,,---,0.00,VWS V14.01,2013-01-26 07:16:00,
2013-01-26 02:21:00,16.5,10.3,29.88,SW,225,0.0,0.0,76,0.00,,---,0.00,VWS V14.01,2013-01-26 07:21:00,
2013-01-26 02:26:00,16.5,10.3,29.88,SW,225,0.0,0.0,76,0.00,,---,0.00,VWS V14.01,2013-01-26 07:26:00,
2013-01-26 02:31:00,16.5,10.3,29.88,SW,225,0.0,0.0,76,0.00,,---,0.00,VWS V14.01,2013-01-26 07:31:00,
2013-01-26 02:36:00,16.7,10.5,29.91,SW,225,0.0,0.0,76,0.00,,---,0.00,VWS V14.01,2013-01-26 07:36:00,
2013-01-26 02:41:00,16.7,10.8,29.91,SW,225,0.0,0.0,77,0.00,,---,0.00,VWS V14.01,2013-01-26 07:41:00,
2013-01-26 02:46:00,16.7,10.5,29.91,SW,225,0.0,0.0,76,0.00,,---,0.00,VWS V14.01,2013-01-26 07:46:00,
2013-01-26 02:51:00,16.7,10.8,29.94,SW,225,0.0,0.0,77,0.00,,---,0.00,VWS V14.01,2013-01-26 07:51:00,
2013-01-26 02:56:00,16.7,10.8,29.94,SW,225,0.0,0.0,77,0.00,,---,0.00,VWS V14.01,2013-01-26 07:56:00,
2013-01-26 03:01:00,16.7,10.8,29.94,SW,225,0.0,0.0,77,0.00,,---,0.00,VWS V14.01,2013-01-26 08:01:00,
2013-01-26 03:06:00,16.7,10.8,29.94,SW,225,0.0,0.0,77,0.00,,---,0.00,VWS V14.01,2013-01-26 08:06:00,
2013-01-26 03:11:00,16.7,10.8,29.94,SW,225,0.0,0.0,77,0.00,,---,0.00,VWS V14.01,2013-01-26 08:11:00,
2013-01-26 03:16:00,16.9,10.9,29.94,SW,225,0.0,0.0,77,0.00,,---,0.00,VWS V14.01,2013-01-26 08:16:00,
2013-01-26 03:21:00,16.9,10.9,29.94,SW,225,0.0,0.0,77,0.00,,---,0.00,VWS V14.01,2013-01-26 08:21:00,
2013-01-26 03:26:00,16.7,10.8,29.94,SW,225,0.0,0.0,77,0.00,,---,0.00,VWS V14.01,2013-01-26 08:26:00,
2013-01-26 03:31:00,16.9,10.9,29.94,SW,225,0.0,0.0,77,0.00,,---,0.00,VWS V14.01,2013-01-26 08:31:00,
2013-01-26 03:36:00,16.9,10.9,29.94,SW,225,0.0,0.0,77,0.00,,---,0.00,VWS V14.01,2013-01-26 08:36:00,
2013-01-26 03:41:00,16.9,10.9,29.94,SW,225,0.0,0.0,77,0.00,,---,0.00,VWS V14.01,2013-01-26 08:41:00,
2013-01-26 03:46:00,17.1,11.4,29.94,SW,225,0.0,0.0,78,0.00,,---,0.00,VWS V14.01,2013-01-26 08:46:00,
2013-01-26 03:51:00,17.4,11.8,29.94,SW,225,0.0,0.0,78,0.00,,---,0.00,VWS V14.01,2013-01-26 08:51:00,
2013-01-26 03:56:00,17.4,11.8,29.94,SW,225,0.0,0.0,78,0.00,,---,0.00,VWS V14.01,2013-01-26 08:56:00,
2013-01-26 04:01:00,17.4,11.8,29.94,SW,225,0.0,0.0,78,0.00,,---,0.00,VWS V14.01,2013-01-26 09:01:00,
2013-01-26 04:06:00,17.6,11.9,29.94,SW,225,0.0,0.0,78,0.00,,---,0.00,VWS V14.01,2013-01-26 09:06:00,
2013-01-26 04:11:00,17.8,12.1,29.94,SW,225,0.0,0.0,78,0.00,,---,0.00,VWS V14.01,2013-01-26 09:11:00,
2013-01-26 04:16:00,17.8,12.1,29.94,SW,225,0.0,0.0,78,0.00,,---,0.00,VWS V14.01,2013-01-26 09:16:00,
2013-01-26 04:21:00,17.8,12.4,29.94,SW,225,0.0,0.0,79,0.00,,---,0.00,VWS V14.01,2013-01-26 09:21:00,
2013-01-26 04:26:00,18.0,12.6,29.94,SW,225,0.0,0.0,79,0.00,,---,0.00,VWS V14.01,2013-01-26 09:26:00,
2013-01-26 04:31:00,18.1,12.7,29.94,SW,225,0.0,0.0,79,0.00,,---,0.00,VWS V14.01,2013-01-26 09:31:00,
2013-01-26 04:36:00,18.1,13.0,29.94,SW,225,0.0,0.0,80,0.00,,---,0.00,VWS V14.01,2013-01-26 09:36:00,
2013-01-26 04:41:00,18.1,13.0,29.94,SW,225,0.0,0.0,80,0.00,,---,0.00,VWS V14.01,2013-01-26 09:41:00,
2013-01-26 04:46:00,18.1,13.0,29.94,SW,225,0.0,0.0,80,0.00,,---,0.00,VWS V14.01,2013-01-26 09:46:00,
2013-01-26 04:51:00,18.1,13.0,29.94,SW,225,0.0,0.0,80,0.00,,---,0.00,VWS V14.01,2013-01-26 09:51:00,
2013-01-26 04:56:00,18.1,13.0,29.94,SW,225,0.0,0.0,80,0.00,,---,0.00,VWS V14.01,2013-01-26 09:56:00,
2013-01-26 05:01:00,18.1,13.0,29.94,SW,225,0.0,0.0,80,0.00,,---,0.00,VWS V14.01,2013-01-26 10:01:00,
2013-01-26 05:06:00,18.1,13.0,29.91,SW,225,0.0,0.0,80,0.00,,---,0.00,VWS V14.01,2013-01-26 10:06:00,
2013-01-26 05:11:00,18.1,13.0,29.91,SW,225,0.0,0.0,80,0.00,,---,0.00,VWS V14.01,2013-01-26 10:11:00,
2013-01-26 05:16:00,18.1,13.0,29.91,SW,225,0.0,0.0,80,0.00,,---,0.00,VWS V14.01,2013-01-26 10:16:00,
2013-01-26 05:21:00,18.1,13.0,29.94,SW,225,0.0,0.0,80,0.00,,---,0.00,VWS V14.01,2013-01-26 10:21:00,
2013-01-26 05:26:00,18.0,12.8,29.94,SW,225,0.0,0.0,80,0.00,,---,0.00,VWS V14.01,2013-01-26 10:26:00,
2013-01-26 05:31:00,18.0,12.8,29.94,SW,225,0.0,0.0,80,0.00,,---,0.00,VWS V14.01,2013-01-26 10:31:00,
2013-01-26 05:36:00,17.8,12.7,29.94,SW,225,0.0,0.0,80,0.00,,---,0.00,VWS V14.01,2013-01-26 10:36:00,
2013-01-26 05:41:00,17.8,12.7,29.94,SW,225,0.0,0.0,80,0.00,,---,0.00,VWS V14.01,2013-01-26 10:41:00,
2013-01-26 05:46:00,17.8,12.7,29.94,SW,225,0.0,0.0,80,0.00,,---,0.00,VWS V14.01,2013-01-26 10:46:00,
2013-01-26 05:51:00,17.8,12.7,29.97,SW,225,0.0,0.0,80,0.00,,---,0.00,VWS V14.01,2013-01-26 10:51:00,
2013-01-26 05:56:00,17.8,12.7,29.97,SW,225,0.0,0.0,80,0.00,,---,0.00,VWS V14.01,2013-01-26 10:56:00,
2013-01-26 06:01:00,17.8,12.7,29.97,SW,225,0.0,0.0,80,0.00,,---,0.00,VWS V14.01,2013-01-26 11:01:00,
2013-01-26 06:06:00,18.0,12.8,29.97,SW,225,0.0,0.0,80,0.00,,---,0.00,VWS V14.01,2013-01-26 11:06:00,
2013-01-26 06:11:00,18.0,13.1,29.97,SW,225,0.0,0.0,81,0.00,,---,0.00,VWS V14.01,2013-01-26 11:11:00,
2013-01-26 06:16:00,18.1,13.3,29.97,SW,225,0.0,0.0,81,0.00,,---,0.00,VWS V14.01,2013-01-26 11:16:00,
2013-01-26 06:21:00,18.0,13.1,30.00,SW,225,0.0,0.0,81,0.00,,---,0.00,VWS V14.01,2013-01-26 11:21:00,
2013-01-26 06:26:00,18.0,13.1,30.00,SW,225,0.0,0.0,81,0.00,,---,0.00,VWS V14.01,2013-01-26 11:26:00,
2013-01-26 06:31:00,18.0,13.1,30.00,SW,225,0.0,0.0,81,0.00,,---,0.00,VWS V14.01,2013-01-26 11:31:00,
2013-01-26 06:36:00,18.0,13.1,30.00,SW,225,0.0,0.0,81,0.00,,---,0.00,VWS V14.01,2013-01-26 11:36:00,
2013-01-26 06:41:00,18.0,13.1,30.00,SW,225,0.0,0.0,81,0.00,,---,0.00,VWS V14.01,2013-01-26 11:41:00,
2013-01-26 06:46:00,18.0,13.1,30.00,SW,225,0.0,0.0,81,0.00,,---,0.00,VWS V14.01,2013-01-26 11:46:00,
2013-01-26 06:51:00,18.0,13.1,29.97,SW,225,0.0,0.0,81,0.00,,---,0.00,VWS V14.01,2013-01-26 11:51:00,
2013-01-26 06:56:00,18.0,12.8,29.97,SW,225,0.0,0.0,80,0.00,,---,0.00,VWS V14.01,2013-01-26 11:56:00,
2013-01-26 07:01:00,17.8,12.7,29.97,SW,225,0.0,0.0,80,0.00,,---,0.00,VWS V14.01,2013-01-26 12:01:00,
2013-01-26 07:06:00,17.8,12.7,30.00,SW,225,0.0,0.0,80,0.00,,---,0.00,VWS V14.01,2013-01-26 12:06:00,
2013-01-26 07:11:00,17.8,12.7,30.00,SW,225,0.0,0.0,80,0.00,,---,0.00,VWS V14.01,2013-01-26 12:11:00,
2013-01-26 07:16:00,17.8,12.7,30.00,SW,225,0.0,0.0,80,0.00,,---,0.00,VWS V14.01,2013-01-26 12:16:00,
2013-01-26 07:21:00,17.8,12.7,30.00,SW,225,0.0,0.0,80,0.00,,---,0.00,VWS V14.01,2013-01-26 12:21:00,
2013-01-26 07:26:00,17.8,12.7,30.00,SW,225,0.0,0.0,80,0.00,,---,0.00,VWS V14.01,2013-01-26 12:26:00,
2013-01-26 07:31:00,17.8,12.7,30.00,SW,225,0.0,0.0,80,0.00,,---,0.00,VWS V14.01,2013-01-26 12:31:00,
2013-01-26 07:36:00,17.8,12.7,30.00,SW,225,0.0,0.0,80,0.00,,---,0.00,VWS V14.01,2013-01-26 12:36:00,
2013-01-26 07:41:00,17.6,12.5,30.00,SW,225,0.0,0.0,80,0.00,,---,0.00,VWS V14.01,2013-01-26 12:41:00,
2013-01-26 07:46:00,17.6,12.5,30.00,SW,225,0.0,0.0,80,0.00,,---,0.00,VWS V14.01,2013-01-26 12:46:00,
2013-01-26 07:51:00,17.6,12.5,30.00,SW,225,0.0,0.0,80,0.00,,---,0.00,VWS V14.01,2013-01-26 12:51:00,
2013-01-26 07:56:00,17.6,12.5,30.00,SW,225,0.0,0.0,80,0.00,,---,0.00,VWS V14.01,2013-01-26 12:56:00,
2013-01-26 08:01:00,17.6,12.5,30.00,SW,225,0.0,0.0,80,0.00,,---,0.00,VWS V14.01,2013-01-26 13:01:00,
2013-01-26 08:06:00,17.6,12.5,30.03,SW,225,0.0,0.0,80,0.00,,---,0.00,VWS V14.01,2013-01-26 13:06:00,
2013-01-26 08:11:00,17.6,12.5,30.03,SW,225,0.0,0.0,80,0.00,,---,0.00,VWS V14.01,2013-01-26 13:11:00,
2013-01-26 08:16:00,17.6,12.5,30.03,SW,225,0.0,0.0,80,0.00,,---,0.00,VWS V14.01,2013-01-26 13:16:00,
2013-01-26 08:21:00,17.6,12.5,30.03,SW,225,0.0,0.0,80,0.00,,---,0.00,VWS V14.01,2013-01-26 13:21:00,
2013-01-26 08:26:00,17.6,12.5,30.03,SW,225,0.0,0.0,80,0.00,,---,0.00,VWS V14.01,2013-01-26 13:26:00,
2013-01-26 08:31:00,17.8,12.7,30.03,SW,225,0.0,0.0,80,0.00,,---,0.00,VWS V14.01,2013-01-26 13:31:00,
2013-01-26 08:36:00,17.8,12.7,30.06,SW,225,0.0,0.0,80,0.00,,---,0.00,VWS V14.01,2013-01-26 13:36:00,
2013-01-26 08:41:00,18.0,12.8,30.06,SW,225,0.0,0.0,80,0.00,,---,0.00,VWS V14.01,2013-01-26 13:41:00,
2013-01-26 08:46:00,18.1,13.0,30.06,SW,225,0.0,0.0,80,0.00,,---,0.00,VWS V14.01,2013-01-26 13:46:00,
2013-01-26 08:51:00,18.3,13.2,30.06,SW,225,0.0,0.0,80,0.00,,---,0.00,VWS V14.01,2013-01-26 13:51:00,
2013-01-26 08:56:00,18.3,13.2,30.06,SW,225,0.0,0.0,80,0.00,,---,0.00,VWS V14.01,2013-01-26 13:56:00,
2013-01-26 09:01:00,18.5,13.4,30.06,SW,225,0.0,0.0,80,0.00,,---,0.00,VWS V14.01,2013-01-26 14:01:00,
2013-01-26 09:06:00,18.7,13.6,30.06,SW,225,0.0,0.0,80,0.00,,---,0.00,VWS V14.01,2013-01-26 14:06:00,
2013-01-26 09:11:00,19.0,13.9,30.06,SW,225,0.0,0.0,80,0.00,,---,0.00,VWS V14.01,2013-01-26 14:11:00,
2013-01-26 09:16:00,19.2,13.8,30.06,SW,225,0.0,0.0,79,0.00,,---,0.00,VWS V14.01,2013-01-26 14:16:00,
2013-01-26 09:21:00,19.4,14.0,30.06,SW,225,0.0,0.0,79,0.00,,---,0.00,VWS V14.01,2013-01-26 14:21:00,
2013-01-26 09:26:00,19.6,14.1,30.06,SW,225,0.0,0.0,79,0.00,,---,0.00,VWS V14.01,2013-01-26 14:26:00,
2013-01-26 09:31:00,19.8,14.0,30.06,SW,225,0.0,0.0,78,0.00,,---,0.00,VWS V14.01,2013-01-26 14:31:00,
2013-01-26 09:36:00,19.9,14.2,30.06,SW,225,0.0,0.0,78,0.00,,---,0.00,VWS V14.01,2013-01-26 14:36:00,
2013-01-26 09:41:00,20.1,14.4,30.06,SW,225,0.0,0.0,78,0.00,,---,0.00,VWS V14.01,2013-01-26 14:41:00,
2013-01-26 09:45:00,20.3,14.3,30.06,SW,225,0.0,0.0,77,0.00,,---,0.00,VWS V14.01,2013-01-26 14:45:00,
2013-01-26 09:50:00,20.3,14.0,30.06,SW,225,0.0,0.0,76,0.00,,---,0.00,VWS V14.01,2013-01-26 14:50:00,
2013-01-26 09:55:00,20.5,13.8,30.06,SW,225,0.0,0.0,75,0.00,,---,0.00,VWS V14.01,2013-01-26 14:55:00,
2013-01-26 10:00:00,20.7,13.7,30.06,SW,225,0.0,0.0,74,0.00,,---,0.00,VWS V14.01,2013-01-26 15:00:00,
2013-01-26 10:05:00,20.8,13.9,30.06,SW,225,0.0,0.0,74,0.00,,---,0.00,VWS V14.01,2013-01-26 15:05:00,
2013-01-26 10:10:00,21.0,13.7,30.06,SW,225,0.0,0.0,73,0.00,,---,0.00,VWS V14.01,2013-01-26 15:10:00,
2013-01-26 10:15:00,21.2,13.9,30.06,SW,225,0.0,0.0,73,0.00,,---,0.00,VWS V14.01,2013-01-26 15:15:00,
2013-01-26 10:20:00,21.4,13.8,30.09,SW,225,0.0,0.0,72,0.00,,---,0.00,VWS V14.01,2013-01-26 15:20:00,
2013-01-26 10:25:00,21.6,13.9,30.09,SW,225,0.0,0.0,72,0.00,,---,0.00,VWS V14.01,2013-01-26 15:25:00,
2013-01-26 10:30:00,21.9,14.0,30.09,SW,225,0.0,0.0,71,0.00,,---,0.00,VWS V14.01,2013-01-26 15:30:00,
2013-01-26 10:35:00,22.1,13.8,30.09,SW,225,0.0,0.0,70,0.00,,---,0.00,VWS V14.01,2013-01-26 15:35:00,
2013-01-26 10:40:00,22.3,13.0,30.09,SW,225,0.0,0.0,67,0.00,,---,0.00,VWS V14.01,2013-01-26 15:40:00,
2013-01-26 10:45:00,22.5,12.8,30.09,SW,225,0.0,0.0,66,0.00,,---,0.00,VWS V14.01,2013-01-26 15:45:00,
2013-01-26 10:50:00,22.5,12.5,30.12,SW,225,0.0,0.0,65,0.00,,---,0.00,VWS V14.01,2013-01-26 15:50:00,
2013-01-26 10:55:00,22.6,12.7,30.12,SW,225,0.0,0.0,65,0.00,,---,0.00,VWS V14.01,2013-01-26 15:55:00,
2013-01-26 11:00:00,22.5,11.8,30.12,SW,225,0.0,0.0,63,0.00,,---,0.00,VWS V14.01,2013-01-26 16:00:00,
2013-01-26 11:05:00,22.5,11.8,30.12,SW,225,0.0,0.0,63,0.00,,---,0.00,VWS V14.01,2013-01-26 16:05:00,
2013-01-26 11:10:00,22.8,12.5,30.12,SW,225,0.0,0.0,64,0.00,,---,0.00,VWS V14.01,2013-01-26 16:10:00,
2013-01-26 11:15:00,22.6,12.0,30.12,SW,225,0.0,0.0,63,0.00,,---,0.00,VWS V14.01,2013-01-26 16:15:00,
2013-01-26 11:20:00,22.8,12.5,30.09,SW,225,0.0,0.0,64,0.00,,---,0.00,VWS V14.01,2013-01-26 16:20:00,
2013-01-26 11:25:00,23.4,12.6,30.09,SW,225,0.0,0.0,63,0.00,,---,0.00,VWS V14.01,2013-01-26 16:25:00,
2013-01-26 11:30:00,23.5,12.4,30.09,SW,225,0.0,0.0,62,0.00,,---,0.00,VWS V14.01,2013-01-26 16:30:00,
2013-01-26 11:35:00,23.4,11.5,30.12,SW,225,0.0,0.0,60,0.00,,---,0.00,VWS V14.01,2013-01-26 16:35:00,
2013-01-26 11:40:00,23.5,11.7,30.12,SW,225,0.0,0.0,60,0.00,,---,0.00,VWS V14.01,2013-01-26 16:40:00,
2013-01-26 11:45:00,23.5,11.7,30.12,SW,225,0.0,0.0,60,0.00,,---,0.00,VWS V14.01,2013-01-26 16:45:00,
2013-01-26 11:50:00,23.7,11.9,30.09,SW,225,0.0,0.0,60,0.00,,---,0.00,VWS V14.01,2013-01-26 16:50:00,
2013-01-26 11:55:00,25.5,14.0,30.09,SW,225,0.0,0.0,61,0.00,,---,0.00,VWS V14.01,2013-01-26 16:55:00,
2013-01-26 12:00:00,25.0,12.3,30.09,SW,225,0.0,0.0,58,0.00,,---,0.00,VWS V14.01,2013-01-26 17:00:00,
2013-01-26 12:05:00,24.6,11.6,30.09,SW,225,0.0,0.0,57,0.00,,---,0.00,VWS V14.01,2013-01-26 17:05:00,
2013-01-26 12:10:00,24.4,11.4,30.09,SW,225,0.0,0.0,57,0.00,,---,0.00,VWS V14.01,2013-01-26 17:10:00,
2013-01-26 12:15:00,26.2,13.5,30.09,SW,225,0.0,0.0,58,0.00,,---,0.00,VWS V14.01,2013-01-26 17:15:00,
2013-01-26 12:20:00,25.9,12.4,30.12,SW,225,0.0,0.0,56,0.00,,---,0.00,VWS V14.01,2013-01-26 17:20:00,
2013-01-26 12:25:00,27.3,14.1,30.12,SW,225,0.0,0.0,57,0.00,,---,0.00,VWS V14.01,2013-01-26 17:25:00,
2013-01-26 12:30:00,29.1,15.0,30.12,SW,225,0.0,0.0,55,0.00,,---,0.00,VWS V14.01,2013-01-26 17:30:00,
2013-01-26 12:35:00,30.0,15.4,30.12,SW,225,0.0,0.0,54,0.00,,---,0.00,VWS V14.01,2013-01-26 17:35:00,
2013-01-26 12:40:00,29.3,14.3,30.12,SW,225,0.0,0.0,53,0.00,,---,0.00,VWS V14.01,2013-01-26 17:40:00,
2013-01-26 12:45:00,27.9,12.5,30.12,SW,225,0.0,0.0,52,0.00,,---,0.00,VWS V14.01,2013-01-26 17:45:00,
2013-01-26 12:50:00,26.4,10.3,30.12,SW,225,0.0,0.0,50,0.00,,---,0.00,VWS V14.01,2013-01-26 17:50:00,
2013-01-26 12:55:00,26.8,10.6,30.12,SW,225,0.0,0.0,50,0.00,,---,0.00,VWS V14.01,2013-01-26 17:55:00,
2013-01-26 13:00:00,27.5,11.8,30.12,SW,225,0.0,0.0,51,0.00,,---,0.00,VWS V14.01,2013-01-26 18:00:00,
2013-01-26 13:05:00,27.0,11.7,30.12,SW,225,0.0,0.0,52,0.00,,---,0.00,VWS V14.01,2013-01-26 18:05:00,
2013-01-26 13:10:00,26.2,10.6,30.12,SW,225,0.0,0.0,51,0.00,,---,0.00,VWS V14.01,2013-01-26 18:10:00,
2013-01-26 13:15:00,25.7,9.6,30.12,SW,225,0.0,0.0,50,0.00,,---,0.00,VWS V14.01,2013-01-26 18:15:00,
2013-01-26 13:20:00,25.2,9.1,30.12,SW,225,0.0,0.0,50,0.00,,---,0.00,VWS V14.01,2013-01-26 18:20:00,
2013-01-26 13:25:00,24.6,8.6,30.12,SW,225,0.0,0.0,50,0.00,,---,0.00,VWS V14.01,2013-01-26 18:25:00,
2013-01-26 13:30:00,24.3,8.3,30.12,SW,225,0.0,0.0,50,0.00,,---,0.00,VWS V14.01,2013-01-26 18:30:00,
2013-01-26 13:35:00,23.9,8.4,30.12,SW,225,0.0,0.0,51,0.00,,---,0.00,VWS V14.01,2013-01-26 18:35:00,
2013-01-26 13:40:00,23.5,8.1,30.12,SW,225,0.0,0.0,51,0.00,,---,0.00,VWS V14.01,2013-01-26 18:40:00,
2013-01-26 13:45:00,23.4,8.4,30.12,SW,225,0.0,0.0,52,0.00,,---,0.00,VWS V14.01,2013-01-26 18:45:00,
2013-01-26 13:50:00,24.4,9.4,30.15,SW,225,0.0,0.0,52,0.00,,---,0.00,VWS V14.01,2013-01-26 18:50:00,
2013-01-26 13:55:00,24.8,10.1,30.15,SW,225,0.0,0.0,53,0.00,,---,0.00,VWS V14.01,2013-01-26 18:55:00,
2013-01-26 14:00:00,25.2,10.4,30.15,SW,225,0.0,0.0,53,0.00,,---,0.00,VWS V14.01,2013-01-26 19:00:00,
2013-01-26 14:05:00,25.2,10.0,30.15,SW,225,0.0,0.0,52,0.00,,---,0.00,VWS V14.01,2013-01-26 19:05:00,
2013-01-26 14:10:00,24.8,9.7,30.15,SW,225,0.0,0.0,52,0.00,,---,0.00,VWS V14.01,2013-01-26 19:10:00,
2013-01-26 14:15:00,24.4,9.4,30.15,SW,225,0.0,0.0,52,0.00,,---,0.00,VWS V14.01,2013-01-26 19:15:00,
2013-01-26 14:20:00,24.8,9.7,30.15,SW,225,0.0,0.0,52,0.00,,---,0.00,VWS V14.01,2013-01-26 19:20:00,
2013-01-26 14:25:00,25.7,10.5,30.15,SW,225,0.0,0.0,52,0.00,,---,0.00,VWS V14.01,2013-01-26 19:25:00,
2013-01-26 14:30:00,26.1,10.4,30.15,SW,225,0.0,0.0,51,0.00,,---,0.00,VWS V14.01,2013-01-26 19:30:00,
2013-01-26 14:35:00,26.2,10.6,30.15,SW,225,0.0,0.0,51,0.00,,---,0.00,VWS V14.01,2013-01-26 19:35:00,
2013-01-26 14:40:00,27.0,11.3,30.15,SW,225,0.0,0.0,51,0.00,,---,0.00,VWS V14.01,2013-01-26 19:40:00,
2013-01-26 14:45:00,27.0,10.8,30.15,SW,225,0.0,0.0,50,0.00,,---,0.00,VWS V14.01,2013-01-26 19:45:00,
2013-01-26 14:50:00,26.4,9.4,30.15,SW,225,0.0,0.0,48,0.00,,---,0.00,VWS V14.01,2013-01-26 19:50:00,
2013-01-26 14:55:00,26.1,9.1,30.15,SW,225,0.0,0.0,48,0.00,,---,0.00,VWS V14.01,2013-01-26 19:55:00,
2013-01-26 15:00:00,25.5,8.6,30.15,SW,225,0.0,0.0,48,0.00,,---,0.00,VWS V14.01,2013-01-26 20:00:00,
2013-01-26 15:05:00,25.3,8.4,30.18,SW,225,0.0,0.0,48,0.00,,---,0.00,VWS V14.01,2013-01-26 20:05:00,
2013-01-26 15:10:00,25.2,8.2,30.18,SW,225,0.0,0.0,48,0.00,,---,0.00,VWS V14.01,2013-01-26 20:10:00,
2013-01-26 15:15:00,25.0,8.1,30.18,SW,225,0.0,0.0,48,0.00,,---,0.00,VWS V14.01,2013-01-26 20:15:00,
2013-01-26 15:20:00,24.8,7.9,30.18,SW,225,0.0,0.0,48,0.00,,---,0.00,VWS V14.01,2013-01-26 20:20:00,
2013-01-26 15:25:00,24.6,7.7,30.18,SW,225,0.0,0.0,48,0.00,,---,0.00,VWS V14.01,2013-01-26 20:25:00,
2013-01-26 15:30:00,24.6,8.2,30.18,SW,225,0.0,0.0,49,0.00,,---,0.00,VWS V14.01,2013-01-26 20:30:00,
2013-01-26 15:35:00,24.8,8.4,30.18,SW,225,0.0,0.0,49,0.00,,---,0.00,VWS V14.01,2013-01-26 20:35:00,
2013-01-26 15:40:00,24.8,8.8,30.18,SW,225,0.0,0.0,50,0.00,,---,0.00,VWS V14.01,2013-01-26 20:40:00,
2013-01-26 15:45:00,24.6,8.6,30.18,SW,225,0.0,0.0,50,0.00,,---,0.00,VWS V14.01,2013-01-26 20:45:00,
2013-01-26 15:50:00,24.4,8.5,30.18,SW,225,0.0,0.0,50,0.00,,---,0.00,VWS V14.01,2013-01-26 20:50:00,
2013-01-26 15:55:00,24.3,8.3,30.18,SW,225,0.0,0.0,50,0.00,,---,0.00,VWS V14.01,2013-01-26 20:55:00,
2013-01-26 16:00:00,24.4,8.9,30.18,SW,225,0.0,0.0,51,0.00,,---,0.00,VWS V14.01,2013-01-26 21:00:00,
2013-01-26 16:05:00,24.3,8.8,30.15,SW,225,0.0,0.0,51,0.00,,---,0.00,VWS V14.01,2013-01-26 21:05:00,
2013-01-26 16:10:00,24.1,8.1,30.15,SW,225,0.0,0.0,50,0.00,,---,0.00,VWS V14.01,2013-01-26 21:10:00,
2013-01-26 16:15:00,24.1,8.1,30.15,SW,225,0.0,0.0,50,0.00,,---,0.00,VWS V14.01,2013-01-26 21:15:00,
2013-01-26 16:20:00,23.9,8.4,30.18,SW,225,0.0,0.0,51,0.00,,---,0.00,VWS V14.01,2013-01-26 21:20:00,
2013-01-26 16:25:00,23.7,8.2,30.18,SW,225,0.0,0.0,51,0.00,,---,0.00,VWS V14.01,2013-01-26 21:25:00,
2013-01-26 16:30:00,23.7,8.2,30.18,SW,225,0.0,0.0,51,0.00,,---,0.00,VWS V14.01,2013-01-26 21:30:00,
2013-01-26 16:35:00,23.7,8.2,30.18,SW,225,0.0,0.0,51,0.00,,---,0.00,VWS V14.01,2013-01-26 21:35:00,
2013-01-26 16:40:00,23.7,8.7,30.18,SW,225,0.0,0.0,52,0.00,,---,0.00,VWS V14.01,2013-01-26 21:40:00,
2013-01-26 16:45:00,23.4,7.9,30.18,SW,225,0.0,0.0,51,0.00,,---,0.00,VWS V14.01,2013-01-26 21:45:00,
2013-01-26 16:50:00,23.0,7.6,30.18,SW,225,0.0,0.0,51,0.00,,---,0.00,VWS V14.01,2013-01-26 21:50:00,
2013-01-26 16:55:00,22.6,7.2,30.18,SW,225,0.0,0.0,51,0.00,,---,0.00,VWS V14.01,2013-01-26 21:55:00,
2013-01-26 17:00:00,22.5,7.1,30.18,SW,225,0.0,0.0,51,0.00,,---,0.00,VWS V14.01,2013-01-26 22:00:00,
2013-01-26 17:05:00,22.1,6.8,30.21,SW,225,0.0,0.0,51,0.00,,---,0.00,VWS V14.01,2013-01-26 22:05:00,
2013-01-26 17:10:00,21.9,6.6,30.21,SW,225,0.0,0.0,51,0.00,,---,0.00,VWS V14.01,2013-01-26 22:10:00,
2013-01-26 17:15:00,21.7,6.4,30.21,SW,225,0.0,0.0,51,0.00,,---,0.00,VWS V14.01,2013-01-26 22:15:00,
2013-01-26 17:20:00,21.6,6.2,30.21,SW,225,0.0,0.0,51,0.00,,---,0.00,VWS V14.01,2013-01-26 22:20:00,
2013-01-26 17:25:00,21.4,6.5,30.21,SW,225,0.0,0.0,52,0.00,,---,0.00,VWS V14.01,2013-01-26 22:25:00,
2013-01-26 17:30:00,21.2,6.3,30.21,SW,225,0.0,0.0,52,0.00,,---,0.00,VWS V14.01,2013-01-26 22:30:00,
2013-01-26 17:35:00,21.0,6.2,30.21,SW,225,0.0,0.0,52,0.00,,---,0.00,VWS V14.01,2013-01-26 22:35:00,
2013-01-26 17:40:00,21.0,6.6,30.21,SW,225,0.0,0.0,53,0.00,,---,0.00,VWS V14.01,2013-01-26 22:40:00,
2013-01-26 17:45:00,20.8,6.4,30.21,SW,225,0.0,0.0,53,0.00,,---,0.00,VWS V14.01,2013-01-26 22:45:00,
2013-01-26 17:50:00,20.8,6.4,30.21,SW,225,0.0,0.0,53,0.00,,---,0.00,VWS V14.01,2013-01-26 22:50:00,
2013-01-26 17:55:00,20.7,6.2,30.21,SW,225,0.0,0.0,53,0.00,,---,0.00,VWS V14.01,2013-01-26 22:55:00,
2013-01-26 18:00:00,20.5,6.5,30.21,SW,225,0.0,0.0,54,0.00,,---,0.00,VWS V14.01,2013-01-26 23:00:00,
2013-01-26 18:05:00,20.5,6.5,30.24,SW,225,0.0,0.0,54,0.00,,---,0.00,VWS V14.01,2013-01-26 23:05:00,
2013-01-26 18:10:00,20.5,6.5,30.24,SW,225,0.0,0.0,54,0.00,,---,0.00,VWS V14.01,2013-01-26 23:10:00,
2013-01-26 18:15:00,20.5,6.9,30.24,SW,225,0.0,0.0,55,0.00,,---,0.00,VWS V14.01,2013-01-26 23:15:00,
2013-01-26 18:20:00,20.5,6.9,30.21,SW,225,0.0,0.0,55,0.00,,---,0.00,VWS V14.01,2013-01-26 23:20:00,
2013-01-26 18:24:00,20.3,6.7,30.21,SW,225,0.0,0.0,55,0.00,,---,0.00,VWS V14.01,2013-01-26 23:24:00,
2013-01-26 18:29:00,20.3,6.7,30.21,SW,225,0.0,0.0,55,0.00,,---,0.00,VWS V14.01,2013-01-26 23:29:00,
2013-01-26 18:34:00,20.1,6.6,30.24,SW,225,0.0,0.0,55,0.00,,---,0.00,VWS V14.01,2013-01-26 23:34:00,
2013-01-26 18:39:00,19.9,6.4,30.24,SW,225,0.0,0.0,55,0.00,,---,0.00,VWS V14.01,2013-01-26 23:39:00,
2013-01-26 18:44:00,19.9,6.8,30.24,SW,225,0.0,0.0,56,0.00,,---,0.00,VWS V14.01,2013-01-26 23:44:00,
2013-01-26 18:49:00,19.8,6.6,30.24,SW,225,0.0,0.0,56,0.00,,---,0.00,VWS V14.01,2013-01-26 23:49:00,
2013-01-26 18:54:00,19.6,6.4,30.24,SW,225,0.0,0.0,56,0.00,,---,0.00,VWS V14.01,2013-01-26 23:54:00,
2013-01-26 18:59:00,19.4,6.7,30.24,SW,225,0.0,0.0,57,0.00,,---,0.00,VWS V14.01,2013-01-26 23:59:00,
2013-01-26 19:04:00,19.4,6.7,30.24,SW,225,0.0,0.0,57,0.00,,---,0.00,VWS V14.01,2013-01-27 00:04:00,
2013-01-26 19:09:00,19.4,6.7,30.24,SW,225,0.0,0.0,57,0.00,,---,0.00,VWS V14.01,2013-01-27 00:09:00,
2013-01-26 19:14:00,19.4,7.1,30.24,SW,225,0.0,0.0,58,0.00,,---,0.00,VWS V14.01,2013-01-27 00:14:00,
2013-01-26 19:19:00,19.4,7.1,30.24,SW,225,0.0,0.0,58,0.00,,---,0.00,VWS V14.01,2013-01-27 00:19:00,
2013-01-26 19:24:00,19.4,7.1,30.24,SW,225,0.0,0.0,58,0.00,,---,0.00,VWS V14.01,2013-01-27 00:24:00,
2013-01-26 19:29:00,19.4,7.1,30.24,SW,225,0.0,0.0,58,0.00,,---,0.00,VWS V14.01,2013-01-27 00:29:00,
2013-01-26 19:34:00,19.4,7.4,30.24,SW,225,0.0,0.0,59,0.00,,---,0.00,VWS V14.01,2013-01-27 00:34:00,
2013-01-26 19:39:00,19.2,7.2,30.24,SW,225,0.0,0.0,59,0.00,,---,0.00,VWS V14.01,2013-01-27 00:39:00,
2013-01-26 19:44:00,19.2,7.2,30.24,SW,225,0.0,0.0,59,0.00,,---,0.00,VWS V14.01,2013-01-27 00:44:00,
2013-01-26 19:49:00,19.0,7.1,30.24,SW,225,0.0,0.0,59,0.00,,---,0.00,VWS V14.01,2013-01-27 00:49:00,
2013-01-26 19:54:00,18.7,6.7,30.24,SW,225,0.0,0.0,59,0.00,,---,0.00,VWS V14.01,2013-01-27 00:54:00,
2013-01-26 19:59:00,18.5,6.6,30.24,SW,225,0.0,0.0,59,0.00,,---,0.00,VWS V14.01,2013-01-27 00:59:00,
2013-01-26 20:04:00,18.1,6.2,30.24,SW,225,0.0,0.0,59,0.00,,---,0.00,VWS V14.01,2013-01-27 01:04:00,
2013-01-26 20:09:00,17.8,5.9,30.24,SW,225,0.0,0.0,59,0.00,,---,0.00,VWS V14.01,2013-01-27 01:09:00,
2013-01-26 20:14:00,17.6,6.1,30.24,SW,225,0.0,0.0,60,0.00,,---,0.00,VWS V14.01,2013-01-27 01:14:00,
2013-01-26 20:19:00,17.4,5.9,30.24,SW,225,0.0,0.0,60,0.00,,---,0.00,VWS V14.01,2013-01-27 01:19:00,
2013-01-26 20:24:00,17.1,5.6,30.24,SW,225,0.0,0.0,60,0.00,,---,0.00,VWS V14.01,2013-01-27 01:24:00,
2013-01-26 20:29:00,17.1,5.6,30.24,SW,225,0.0,0.0,60,0.00,,---,0.00,VWS V14.01,2013-01-27 01:29:00,
2013-01-26 20:34:00,16.9,5.4,30.24,SW,225,0.0,0.0,60,0.00,,---,0.00,VWS V14.01,2013-01-27 01:34:00,
2013-01-26 20:39:00,16.7,5.2,30.24,SW,225,0.0,0.0,60,0.00,,---,0.00,VWS V14.01,2013-01-27 01:39:00,
2013-01-26 20:44:00,16.7,5.6,30.24,SW,225,0.0,0.0,61,0.00,,---,0.00,VWS V14.01,2013-01-27 01:44:00,
2013-01-26 20:49:00,16.5,5.4,30.24,SW,225,0.0,0.0,61,0.00,,---,0.00,VWS V14.01,2013-01-27 01:49:00,
2013-01-26 20:54:00,16.5,5.8,30.24,SW,225,0.0,0.0,62,0.00,,---,0.00,VWS V14.01,2013-01-27 01:54:00,
2013-01-26 20:59:00,16.3,5.6,30.24,SW,225,0.0,0.0,62,0.00,,---,0.00,VWS V14.01,2013-01-27 01:59:00,
2013-01-26 21:04:00,16.2,5.4,30.24,SW,225,0.0,0.0,62,0.00,,---,0.00,VWS V14.01,2013-01-27 02:04:00,
2013-01-26 21:09:00,16.0,5.3,30.24,SW,225,0.0,0.0,62,0.00,,---,0.00,VWS V14.01,2013-01-27 02:09:00,
2013-01-26 21:14:00,15.8,5.4,30.24,SW,225,0.0,0.0,63,0.00,,---,0.00,VWS V14.01,2013-01-27 02:14:00,
2013-01-26 21:19:00,15.8,5.4,30.27,SW,225,0.0,0.0,63,0.00,,---,0.00,VWS V14.01,2013-01-27 02:19:00,
2013-01-26 21:24:00,15.8,5.4,30.27,SW,225,0.0,0.0,63,0.00,,---,0.00,VWS V14.01,2013-01-27 02:24:00,
2013-01-26 21:29:00,15.6,5.6,30.27,SW,225,0.0,0.0,64,0.00,,---,0.00,VWS V14.01,2013-01-27 02:29:00,
2013-01-26 21:34:00,15.4,5.4,30.27,SW,225,0.0,0.0,64,0.00,,---,0.00,VWS V14.01,2013-01-27 02:34:00,
2013-01-26 21:39:00,15.4,5.4,30.27,SW,225,0.0,0.0,64,0.00,,---,0.00,VWS V14.01,2013-01-27 02:39:00,
2013-01-26 21:44:00,15.4,5.4,30.27,SW,225,0.0,0.0,64,0.00,,---,0.00,VWS V14.01,2013-01-27 02:44:00,
2013-01-26 21:49:00,15.4,5.4,30.27,SW,225,0.0,0.0,64,0.00,,---,0.00,VWS V14.01,2013-01-27 02:49:00,
2013-01-26 21:54:00,15.3,5.3,30.27,SW,225,0.0,0.0,64,0.00,,---,0.00,VWS V14.01,2013-01-27 02:54:00,
2013-01-26 21:59:00,15.3,5.3,30.27,SW,225,0.0,0.0,64,0.00,,---,0.00,VWS V14.01,2013-01-27 02:59:00,
2013-01-26 22:04:00,15.1,5.1,30.27,SW,225,0.0,0.0,64,0.00,,---,0.00,VWS V14.01,2013-01-27 03:04:00,
2013-01-26 22:09:00,15.1,5.1,30.27,SW,225,0.0,0.0,64,0.00,,---,0.00,VWS V14.01,2013-01-27 03:09:00,
2013-01-26 22:14:00,14.9,4.9,30.27,SW,225,0.0,0.0,64,0.00,,---,0.00,VWS V14.01,2013-01-27 03:14:00,
2013-01-26 22:19:00,14.9,4.9,30.27,SW,225,0.0,0.0,64,0.00,,---,0.00,VWS V14.01,2013-01-27 03:19:00,
2013-01-26 22:24:00,14.7,4.8,30.27,SW,225,0.0,0.0,64,0.00,,---,0.00,VWS V14.01,2013-01-27 03:24:00,
2013-01-26 22:29:00,14.5,4.6,30.27,SW,225,0.0,0.0,64,0.00,,---,0.00,VWS V14.01,2013-01-27 03:29:00,
2013-01-26 22:34:00,14.5,4.9,30.27,SW,225,0.0,0.0,65,0.00,,---,0.00,VWS V14.01,2013-01-27 03:34:00,
2013-01-26 22:39:00,14.4,4.8,30.27,SW,225,0.0,0.0,65,0.00,,---,0.00,VWS V14.01,2013-01-27 03:39:00,
2013-01-26 22:44:00,14.4,4.8,30.27,SW,225,0.0,0.0,65,0.00,,---,0.00,VWS V14.01,2013-01-27 03:44:00,
2013-01-26 22:49:00,14.4,5.1,30.27,SW,225,0.0,0.0,66,0.00,,---,0.00,VWS V14.01,2013-01-27 03:49:00,
2013-01-26 22:54:00,14.2,4.9,30.27,SW,225,0.0,0.0,66,0.00,,---,0.00,VWS V14.01,2013-01-27 03:54:00,
2013-01-26 22:59:00,14.4,5.1,30.27,SW,225,0.0,0.0,66,0.00,,---,0.00,VWS V14.01,2013-01-27 03:59:00,
2013-01-26 23:04:00,14.4,5.1,30.30,SW,225,0.0,0.0,66,0.00,,---,0.00,VWS V14.01,2013-01-27 04:04:00,
2013-01-26 23:09:00,14.4,5.4,30.30,SW,225,0.0,0.0,67,0.00,,---,0.00,VWS V14.01,2013-01-27 04:09:00,
2013-01-26 23:14:00,14.4,5.4,30.30,SW,225,0.0,0.0,67,0.00,,---,0.00,VWS V14.01,2013-01-27 04:14:00,
2013-01-26 23:19:00,14.4,5.4,30.30,SW,225,0.0,0.0,67,0.00,,---,0.00,VWS V14.01,2013-01-27 04:19:00,
2013-01-26 23:24:00,14.4,5.4,30.30,SW,225,0.0,0.0,67,0.00,,---,0.00,VWS V14.01,2013-01-27 04:24:00,
2013-01-26 23:29:00,14.4,5.4,30.30,SW,225,0.0,0.0,67,0.00,,---,0.00,VWS V14.01,2013-01-27 04:29:00,
2013-01-26 23:34:00,14.5,5.9,30.30,SW,225,0.0,0.0,68,0.00,,---,0.00,VWS V14.01,2013-01-27 04:34:00,
2013-01-26 23:39:00,14.7,6.1,30.30,SW,225,0.0,0.0,68,0.00,,---,0.00,VWS V14.01,2013-01-27 04:39:00,
2013-01-26 23:44:00,15.1,6.4,30.30,SW,225,0.0,0.0,68,0.00,,---,0.00,VWS V14.01,2013-01-27 04:44:00,
2013-01-26 23:49:00,15.3,6.9,30.30,SW,225,0.0,0.0,69,0.00,,---,0.00,VWS V14.01,2013-01-27 04:49:00,
2013-01-26 23:54:00,15.3,6.6,30.30,SW,225,0.0,0.0,68,0.00,,---,0.00,VWS V14.01,2013-01-27 04:54:00,
2013-01-26 23:59:00,15.3,6.6,30.30,SW,225,0.0,0.0,68,0.00,,---,0.00,VWS V14.01,2013-01-27 04:59:00,